The Sea Ranch, CA (95497)

2:27 AM PST on December 11, 2016 (GMT -0800)
The Sea Ranch | | Change Station

Elev 43 ft 38.74 °N, 123.50 °W | Updated 1 minute ago

Mostly Cloudy
Mostly Cloudy
43.9 °F
Feels Like 44 °F
N
0.0
Wind Variable Wind from North
Gusts 0.0 mph

Today
High -- | Low -- °F
--% Chance of Precip.
Yesterday
High -- | Low -- °F
Precip. -- in
Pressure 30.18 in
Visibility 10.0 miles
Clouds Overcast 2500 ft
Windchill 44 °F
Dew Point 43 °F
Humidity 97%
Rainfall 0.00 in
Snow Depth Not available.
7:22 AM 4:52 PM
Waxing Gibbous, 90% visible
METAR KUKI 110956Z AUTO 00000KT 10SM OVC025 07/06 A3018 RMK AO2 SLP218 T00670061
Pressure 30.18 in
Visibility 10.0 miles
Clouds Overcast 2500 ft
Windchill 44 °F
Dew Point 43 °F
Humidity 97%
Rainfall 0.00 in
Snow Depth Not available.
7:22 AM 4:52 PM
Waxing Gibbous, 90% visible
METAR KUKI 110956Z AUTO 00000KT 10SM OVC025 07/06 A3018 RMK AO2 SLP218 T00670061

10-Day Weather Forecast

Almanac

Astronomy

Dec. 11, 2016 Rise Set
Actual Time
Civil Twilight
Nautical Twilight
Astronomical Twilight
Moon
Length of Visible Light
Length of Day
Tomorrow will be .
, % of the Moon is Illuminated

Today's Extremes

State Highs State Lows

Community

WunderPhotos

Upload Photos

1,956,702 photos uploaded!

WunderBlog® & News

Nearby

Air Quality

  Air Quality AQ Index Pollutant
Not available.

Snow Depth

Station Depth Elevation

Earthquake Activity

City Distance Mag. Time & Date
Minimum magnitude displayed is 2.5.

Coastal Water Temperatures

Place Temperature

Stations

Nearby Weather Stations

Station Location Temp. Windchill Dew Point Humidity Wind Precip. Elev Updated Type
                   

Watches & Warnings

There are currently no watches in effect.